sensor_id;sensor_type;location;lat;lon;timestamp;P1;durP1;ratioP1;P2;durP2;ratioP2
40997;SDS011;26740;45.944;12.480;2023-01-06T00:02:20;1.00;;;1.00;;
40997;SDS011;26740;45.944;12.480;2023-01-06T00:04:46;0.40;;;0.40;;
40997;SDS011;26740;45.944;12.480;2023-01-06T00:07:12;0.40;;;0.40;;
40997;SDS011;26740;45.944;12.480;2023-01-06T00:09:38;0.40;;;0.40;;
40997;SDS011;26740;45.944;12.480;2023-01-06T00:12:03;0.30;;;0.30;;
40997;SDS011;26740;45.944;12.480;2023-01-06T00:14:29;0.52;;;0.52;;
40997;SDS011;26740;45.944;12.480;2023-01-06T00:16:55;0.30;;;0.30;;
40997;SDS011;26740;45.944;12.480;2023-01-06T00:19:21;0.40;;;0.40;;
40997;SDS011;26740;45.944;12.480;2023-01-06T00:21:46;0.70;;;0.70;;
40997;SDS011;26740;45.944;12.480;2023-01-06T00:24:12;0.28;;;0.28;;
40997;SDS011;26740;45.944;12.480;2023-01-06T00:26:38;36.25;;;34.25;;
40997;SDS011;26740;45.944;12.480;2023-01-06T00:29:03;5.88;;;5.78;;
40997;SDS011;26740;45.944;12.480;2023-01-06T00:31:29;3.10;;;3.00;;
40997;SDS011;26740;45.944;12.480;2023-01-06T00:33:55;1.88;;;1.88;;
40997;SDS011;26740;45.944;12.480;2023-01-06T00:36:22;1.70;;;1.70;;
40997;SDS011;26740;45.944;12.480;2023-01-06T00:38:49;0.90;;;0.90;;
40997;SDS011;26740;45.944;12.480;2023-01-06T00:41:15;0.90;;;0.90;;
40997;SDS011;26740;45.944;12.480;2023-01-06T00:43:59;1.38;;;1.38;;
40997;SDS011;26740;45.944;12.480;2023-01-06T00:46:26;0.90;;;0.90;;
40997;SDS011;26740;45.944;12.480;2023-01-06T00:48:54;0.80;;;0.80;;
40997;SDS011;26740;45.944;12.480;2023-01-06T00:51:20;1.08;;;1.08;;
40997;SDS011;26740;45.944;12.480;2023-01-06T00:53:46;0.70;;;0.70;;
40997;SDS011;26740;45.944;12.480;2023-01-06T00:56:12;0.40;;;0.40;;
40997;SDS011;26740;45.944;12.480;2023-01-06T00:58:37;0.40;;;0.40;;
40997;SDS011;26740;45.944;12.480;2023-01-06T01:01:04;0.60;;;0.60;;
40997;SDS011;26740;45.944;12.480;2023-01-06T01:03:31;0.60;;;0.60;;
40997;SDS011;26740;45.944;12.480;2023-01-06T01:05:59;0.60;;;0.60;;
40997;SDS011;26740;45.944;12.480;2023-01-06T01:08:28;1999.90;;;999.90;;
40997;SDS011;26740;45.944;12.480;2023-01-06T01:10:54;542.90;;;290.88;;
40997;SDS011;26740;45.944;12.480;2023-01-06T01:13:20;1999.90;;;999.90;;
40997;SDS011;26740;45.944;12.480;2023-01-06T01:15:46;58.22;;;55.22;;
40997;SDS011;26740;45.944;12.480;2023-01-06T01:18:14;38.33;;;36.63;;
40997;SDS011;26740;45.944;12.480;2023-01-06T01:20:39;540.42;;;288.58;;
40997;SDS011;26740;45.944;12.480;2023-01-06T01:23:05;36.42;;;34.83;;
40997;SDS011;26740;45.944;12.480;2023-01-06T01:25:31;1999.90;;;999.90;;
40997;SDS011;26740;45.944;12.480;2023-01-06T01:27:56;1999.90;;;999.90;;
40997;SDS011;26740;45.944;12.480;2023-01-06T01:30:22;1999.90;;;999.90;;
40997;SDS011;26740;45.944;12.480;2023-01-06T01:32:47;1999.90;;;999.90;;
40997;SDS011;26740;45.944;12.480;2023-01-06T01:35:13;1999.90;;;999.90;;
40997;SDS011;26740;45.944;12.480;2023-01-06T01:37:39;1999.90;;;999.90;;
40997;SDS011;26740;45.944;12.480;2023-01-06T01:40:05;1999.90;;;999.90;;
40997;SDS011;26740;45.944;12.480;2023-01-06T01:42:31;1999.90;;;999.90;;
40997;SDS011;26740;45.944;12.480;2023-01-06T01:44:59;1999.90;;;999.90;;
40997;SDS011;26740;45.944;12.480;2023-01-06T01:47:52;1999.90;;;999.90;;
40997;SDS011;26740;45.944;12.480;2023-01-06T01:53:17;1999.90;;;999.90;;
40997;SDS011;26740;45.944;12.480;2023-01-06T01:55:51;1999.90;;;999.90;;
40997;SDS011;26740;45.944;12.480;2023-01-06T01:58:20;1999.90;;;999.90;;
40997;SDS011;26740;45.944;12.480;2023-01-06T02:00:50;1999.90;;;999.90;;
40997;SDS011;26740;45.944;12.480;2023-01-06T02:03:17;1999.90;;;999.90;;
40997;SDS011;26740;45.944;12.480;2023-01-06T02:05:50;1999.90;;;999.90;;
40997;SDS011;26740;45.944;12.480;2023-01-06T02:08:27;1999.90;;;999.90;;
40997;SDS011;26740;45.944;12.480;2023-01-06T02:10:54;1999.90;;;999.90;;
40997;SDS011;26740;45.944;12.480;2023-01-06T02:13:20;1999.90;;;999.90;;
40997;SDS011;26740;45.944;12.480;2023-01-06T02:15:45;1999.90;;;999.90;;
40997;SDS011;26740;45.944;12.480;2023-01-06T02:24:06;1999.90;;;999.90;;
40997;SDS011;26740;45.944;12.480;2023-01-06T02:26:58;1999.90;;;999.90;;
40997;SDS011;26740;45.944;12.480;2023-01-06T02:32:28;1999.90;;;999.90;;
40997;SDS011;26740;45.944;12.480;2023-01-06T02:51:48;1999.90;;;999.90;;
40997;SDS011;26740;45.944;12.480;2023-01-06T02:54:26;1999.90;;;999.90;;
40997;SDS011;26740;45.944;12.480;2023-01-06T02:57:14;1999.90;;;999.90;;
40997;SDS011;26740;45.944;12.480;2023-01-06T03:00:32;1999.90;;;999.90;;
40997;SDS011;26740;45.944;12.480;2023-01-06T03:02:45;1999.90;;;999.90;;
40997;SDS011;26740;45.944;12.480;2023-01-06T03:05:16;1999.90;;;999.90;;
40997;SDS011;26740;45.944;12.480;2023-01-06T03:07:43;1999.90;;;999.90;;
40997;SDS011;26740;45.944;12.480;2023-01-06T03:10:12;1999.90;;;999.90;;
40997;SDS011;26740;45.944;12.480;2023-01-06T03:15:28;1999.90;;;999.90;;
40997;SDS011;26740;45.944;12.480;2023-01-06T03:17:54;1999.90;;;999.90;;
40997;SDS011;26740;45.944;12.480;2023-01-06T03:20:20;1999.90;;;999.90;;
40997;SDS011;26740;45.944;12.480;2023-01-06T03:22:46;1999.90;;;999.90;;
40997;SDS011;26740;45.944;12.480;2023-01-06T03:25:11;33.35;;;30.80;;
40997;SDS011;26740;45.944;12.480;2023-01-06T03:27:38;21.90;;;21.00;;
40997;SDS011;26740;45.944;12.480;2023-01-06T03:30:04;1999.90;;;999.90;;
40997;SDS011;26740;45.944;12.480;2023-01-06T03:32:39;1999.90;;;999.90;;
40997;SDS011;26740;45.944;12.480;2023-01-06T03:38:16;1999.90;;;999.90;;
40997;SDS011;26740;45.944;12.480;2023-01-06T03:40:52;1999.90;;;999.90;;
40997;SDS011;26740;45.944;12.480;2023-01-06T03:48:58;1999.90;;;999.90;;
40997;SDS011;26740;45.944;12.480;2023-01-06T03:57:23;1999.90;;;999.90;;
40997;SDS011;26740;45.944;12.480;2023-01-06T04:02:20;1999.90;;;999.90;;
40997;SDS011;26740;45.944;12.480;2023-01-06T04:07:31;1999.90;;;999.90;;
40997;SDS011;26740;45.944;12.480;2023-01-06T04:09:57;1999.90;;;999.90;;
40997;SDS011;26740;45.944;12.480;2023-01-06T04:12:22;20.52;;;19.73;;
40997;SDS011;26740;45.944;12.480;2023-01-06T04:15:07;1999.90;;;999.90;;
40997;SDS011;26740;45.944;12.480;2023-01-06T04:17:36;1999.90;;;999.90;;
40997;SDS011;26740;45.944;12.480;2023-01-06T04:20:06;1999.90;;;999.90;;
40997;SDS011;26740;45.944;12.480;2023-01-06T04:22:34;1999.90;;;999.90;;
40997;SDS011;26740;45.944;12.480;2023-01-06T04:25:00;1999.90;;;999.90;;
40997;SDS011;26740;45.944;12.480;2023-01-06T04:27:26;8.85;;;8.50;;
40997;SDS011;26740;45.944;12.480;2023-01-06T04:29:51;2.78;;;2.72;;
40997;SDS011;26740;45.944;12.480;2023-01-06T04:32:17;4.68;;;4.57;;
40997;SDS011;26740;45.944;12.480;2023-01-06T04:34:43;7.60;;;7.40;;
40997;SDS011;26740;45.944;12.480;2023-01-06T04:37:08;10.15;;;9.85;;
40997;SDS011;26740;45.944;12.480;2023-01-06T04:39:34;10.15;;;9.85;;
40997;SDS011;26740;45.944;12.480;2023-01-06T04:42:00;13.02;;;12.52;;
40997;SDS011;26740;45.944;12.480;2023-01-06T04:44:25;13.70;;;13.20;;
40997;SDS011;26740;45.944;12.480;2023-01-06T04:46:51;14.48;;;13.98;;
40997;SDS011;26740;45.944;12.480;2023-01-06T04:49:17;17.90;;;17.20;;
40997;SDS011;26740;45.944;12.480;2023-01-06T04:51:42;19.60;;;16.40;;
40997;SDS011;26740;45.944;12.480;2023-01-06T04:54:08;20.30;;;16.38;;
40997;SDS011;26740;45.944;12.480;2023-01-06T04:56:34;6.65;;;6.45;;
40997;SDS011;26740;45.944;12.480;2023-01-06T04:58:59;7.50;;;7.30;;
40997;SDS011;26740;45.944;12.480;2023-01-06T05:01:25;9.10;;;8.80;;
40997;SDS011;26740;45.944;12.480;2023-01-06T05:03:51;13.70;;;13.20;;
40997;SDS011;26740;45.944;12.480;2023-01-06T05:06:17;11.75;;;11.35;;
40997;SDS011;26740;45.944;12.480;2023-01-06T05:08:44;13.27;;;12.77;;
40997;SDS011;26740;45.944;12.480;2023-01-06T05:11:14;18.45;;;17.75;;
40997;SDS011;26740;45.944;12.480;2023-01-06T05:13:42;20.85;;;14.68;;
40997;SDS011;26740;45.944;12.480;2023-01-06T05:16:08;14.00;;;13.50;;
40997;SDS011;26740;45.944;12.480;2023-01-06T05:18:42;15.15;;;14.55;;
40997;SDS011;26740;45.944;12.480;2023-01-06T05:21:08;20.92;;;20.13;;
40997;SDS011;26740;45.944;12.480;2023-01-06T05:23:35;21.58;;;20.67;;
40997;SDS011;26740;45.944;12.480;2023-01-06T05:26:01;26.33;;;25.20;;
40997;SDS011;26740;45.944;12.480;2023-01-06T05:28:27;1999.90;;;999.90;;
40997;SDS011;26740;45.944;12.480;2023-01-06T05:31:00;1999.90;;;999.90;;
40997;SDS011;26740;45.944;12.480;2023-01-06T05:33:27;1999.90;;;999.90;;
40997;SDS011;26740;45.944;12.480;2023-01-06T05:36:03;4.03;;;3.92;;
40997;SDS011;26740;45.944;12.480;2023-01-06T05:38:31;0.20;;;0.20;;
40997;SDS011;26740;45.944;12.480;2023-01-06T05:40:57;0.80;;;0.80;;
40997;SDS011;26740;45.944;12.480;2023-01-06T05:43:23;1.40;;;1.40;;
40997;SDS011;26740;45.944;12.480;2023-01-06T05:45:50;2.28;;;2.28;;
40997;SDS011;26740;45.944;12.480;2023-01-06T05:48:16;2.97;;;2.88;;
40997;SDS011;26740;45.944;12.480;2023-01-06T05:50:42;0.30;;;0.30;;
40997;SDS011;26740;45.944;12.480;2023-01-06T05:53:08;0.60;;;0.60;;
40997;SDS011;26740;45.944;12.480;2023-01-06T05:55:34;0.90;;;0.90;;
40997;SDS011;26740;45.944;12.480;2023-01-06T05:57:59;1.30;;;1.30;;
40997;SDS011;26740;45.944;12.480;2023-01-06T06:00:25;2.08;;;2.08;;
40997;SDS011;26740;45.944;12.480;2023-01-06T06:02:51;3.00;;;2.90;;
40997;SDS011;26740;45.944;12.480;2023-01-06T06:05:16;3.30;;;3.20;;
40997;SDS011;26740;45.944;12.480;2023-01-06T06:07:42;34.95;;;23.08;;
40997;SDS011;26740;45.944;12.480;2023-01-06T06:10:08;8.13;;;7.93;;
40997;SDS011;26740;45.944;12.480;2023-01-06T06:12:34;11.70;;;11.30;;
40997;SDS011;26740;45.944;12.480;2023-01-06T06:15:00;13.27;;;12.77;;
40997;SDS011;26740;45.944;12.480;2023-01-06T06:17:26;18.05;;;17.35;;
40997;SDS011;26740;45.944;12.480;2023-01-06T06:19:52;18.83;;;18.13;;
40997;SDS011;26740;45.944;12.480;2023-01-06T06:22:18;24.48;;;22.50;;
40997;SDS011;26740;45.944;12.480;2023-01-06T06:24:43;18.70;;;18.00;;
40997;SDS011;26740;45.944;12.480;2023-01-06T06:27:09;22.00;;;21.10;;
40997;SDS011;26740;45.944;12.480;2023-01-06T06:29:35;24.10;;;23.10;;
40997;SDS011;26740;45.944;12.480;2023-01-06T06:32:00;25.38;;;24.30;;
40997;SDS011;26740;45.944;12.480;2023-01-06T06:34:26;1999.90;;;999.90;;
40997;SDS011;26740;45.944;12.480;2023-01-06T06:36:51;1999.90;;;999.90;;
40997;SDS011;26740;45.944;12.480;2023-01-06T06:39:18;1999.90;;;999.90;;
40997;SDS011;26740;45.944;12.480;2023-01-06T06:41:43;1999.90;;;999.90;;
40997;SDS011;26740;45.944;12.480;2023-01-06T06:44:09;1999.90;;;999.90;;
40997;SDS011;26740;45.944;12.480;2023-01-06T06:46:35;1999.90;;;999.90;;
40997;SDS011;26740;45.944;12.480;2023-01-06T06:49:00;1999.90;;;999.90;;
40997;SDS011;26740;45.944;12.480;2023-01-06T06:51:28;1999.90;;;999.90;;
40997;SDS011;26740;45.944;12.480;2023-01-06T06:53:54;1999.90;;;999.90;;
40997;SDS011;26740;45.944;12.480;2023-01-06T06:56:19;21.02;;;20.17;;
40997;SDS011;26740;45.944;12.480;2023-01-06T06:58:46;24.55;;;23.55;;
40997;SDS011;26740;45.944;12.480;2023-01-06T07:01:13;1999.90;;;999.90;;
40997;SDS011;26740;45.944;12.480;2023-01-06T07:03:40;1999.90;;;999.90;;
40997;SDS011;26740;45.944;12.480;2023-01-06T07:06:07;1999.90;;;999.90;;
40997;SDS011;26740;45.944;12.480;2023-01-06T07:08:35;1999.90;;;999.90;;
40997;SDS011;26740;45.944;12.480;2023-01-06T07:11:01;1999.90;;;999.90;;
40997;SDS011;26740;45.944;12.480;2023-01-06T07:13:27;1999.90;;;999.90;;
40997;SDS011;26740;45.944;12.480;2023-01-06T07:15:53;1999.90;;;999.90;;
40997;SDS011;26740;45.944;12.480;2023-01-06T07:18:19;1999.90;;;999.90;;
40997;SDS011;26740;45.944;12.480;2023-01-06T07:20:45;1999.90;;;999.90;;
40997;SDS011;26740;45.944;12.480;2023-01-06T07:23:14;1999.90;;;999.90;;
40997;SDS011;26740;45.944;12.480;2023-01-06T07:25:39;1999.90;;;999.90;;
40997;SDS011;26740;45.944;12.480;2023-01-06T07:28:05;1999.90;;;999.90;;
40997;SDS011;26740;45.944;12.480;2023-01-06T07:30:32;1999.90;;;999.90;;
40997;SDS011;26740;45.944;12.480;2023-01-06T07:32:58;1999.90;;;999.90;;
40997;SDS011;26740;45.944;12.480;2023-01-06T07:35:24;1999.90;;;999.90;;
40997;SDS011;26740;45.944;12.480;2023-01-06T07:37:50;1999.90;;;999.90;;
40997;SDS011;26740;45.944;12.480;2023-01-06T07:40:16;1999.90;;;999.90;;
40997;SDS011;26740;45.944;12.480;2023-01-06T07:42:42;1999.90;;;999.90;;
40997;SDS011;26740;45.944;12.480;2023-01-06T07:45:09;1999.90;;;999.90;;
40997;SDS011;26740;45.944;12.480;2023-01-06T07:47:35;15.45;;;14.77;;
40997;SDS011;26740;45.944;12.480;2023-01-06T07:50:01;9.27;;;8.98;;
40997;SDS011;26740;45.944;12.480;2023-01-06T07:52:27;10.27;;;9.98;;
40997;SDS011;26740;45.944;12.480;2023-01-06T07:54:53;14.98;;;14.38;;
40997;SDS011;26740;45.944;12.480;2023-01-06T07:57:23;14.48;;;13.02;;
40997;SDS011;26740;45.944;12.480;2023-01-06T07:59:53;1999.90;;;999.90;;
40997;SDS011;26740;45.944;12.480;2023-01-06T08:02:19;1999.90;;;999.90;;
40997;SDS011;26740;45.944;12.480;2023-01-06T08:04:45;1999.90;;;999.90;;
40997;SDS011;26740;45.944;12.480;2023-01-06T08:07:14;1999.90;;;999.90;;
40997;SDS011;26740;45.944;12.480;2023-01-06T08:09:41;1999.90;;;999.90;;
40997;SDS011;26740;45.944;12.480;2023-01-06T08:12:07;1999.90;;;999.90;;
40997;SDS011;26740;45.944;12.480;2023-01-06T08:14:32;1999.90;;;999.90;;
40997;SDS011;26740;45.944;12.480;2023-01-06T08:16:58;1999.90;;;999.90;;
40997;SDS011;26740;45.944;12.480;2023-01-06T08:19:24;1999.90;;;999.90;;
40997;SDS011;26740;45.944;12.480;2023-01-06T08:21:50;1999.90;;;999.90;;
40997;SDS011;26740;45.944;12.480;2023-01-06T08:24:15;27.27;;;26.15;;
40997;SDS011;26740;45.944;12.480;2023-01-06T08:26:41;29.73;;;28.42;;
40997;SDS011;26740;45.944;12.480;2023-01-06T08:29:06;1999.90;;;999.90;;
40997;SDS011;26740;45.944;12.480;2023-01-06T08:31:32;1999.90;;;999.90;;
40997;SDS011;26740;45.944;12.480;2023-01-06T08:33:58;1999.90;;;999.90;;
40997;SDS011;26740;45.944;12.480;2023-01-06T08:36:24;1999.90;;;999.90;;
40997;SDS011;26740;45.944;12.480;2023-01-06T08:38:50;1999.90;;;999.90;;
40997;SDS011;26740;45.944;12.480;2023-01-06T08:41:16;1999.90;;;999.90;;
40997;SDS011;26740;45.944;12.480;2023-01-06T08:43:43;1999.90;;;999.90;;
40997;SDS011;26740;45.944;12.480;2023-01-06T08:46:10;1999.90;;;999.90;;
40997;SDS011;26740;45.944;12.480;2023-01-06T08:48:41;1999.90;;;999.90;;
40997;SDS011;26740;45.944;12.480;2023-01-06T08:51:09;1999.90;;;999.90;;
40997;SDS011;26740;45.944;12.480;2023-01-06T08:53:37;11.10;;;10.35;;
40997;SDS011;26740;45.944;12.480;2023-01-06T08:56:03;5.32;;;5.22;;
40997;SDS011;26740;45.944;12.480;2023-01-06T08:58:29;7.93;;;7.72;;
40997;SDS011;26740;45.944;12.480;2023-01-06T09:00:55;11.63;;;11.23;;
40997;SDS011;26740;45.944;12.480;2023-01-06T09:03:21;12.48;;;12.07;;
40997;SDS011;26740;45.944;12.480;2023-01-06T09:05:56;12.15;;;11.75;;
40997;SDS011;26740;45.944;12.480;2023-01-06T09:08:22;25.00;;;13.07;;
40997;SDS011;26740;45.944;12.480;2023-01-06T09:10:49;7.30;;;7.10;;
40997;SDS011;26740;45.944;12.480;2023-01-06T09:13:15;8.45;;;8.20;;
40997;SDS011;26740;45.944;12.480;2023-01-06T09:15:41;10.65;;;10.25;;
40997;SDS011;26740;45.944;12.480;2023-01-06T09:18:08;11.57;;;11.18;;
40997;SDS011;26740;45.944;12.480;2023-01-06T09:20:35;27.80;;;11.65;;
40997;SDS011;26740;45.944;12.480;2023-01-06T09:23:02;1.70;;;1.70;;
40997;SDS011;26740;45.944;12.480;2023-01-06T09:25:28;2.17;;;2.17;;
40997;SDS011;26740;45.944;12.480;2023-01-06T09:27:54;34.33;;;4.85;;
40997;SDS011;26740;45.944;12.480;2023-01-06T09:30:19;0.25;;;0.25;;
40997;SDS011;26740;45.944;12.480;2023-01-06T09:32:45;0.30;;;0.30;;
40997;SDS011;26740;45.944;12.480;2023-01-06T09:35:11;11.63;;;10.77;;
40997;SDS011;26740;45.944;12.480;2023-01-06T09:37:37;2.90;;;2.80;;
40997;SDS011;26740;45.944;12.480;2023-01-06T09:40:02;7.15;;;6.95;;
40997;SDS011;26740;45.944;12.480;2023-01-06T09:45:35;164.30;;;96.78;;
40997;SDS011;26740;45.944;12.480;2023-01-06T09:48:05;19.48;;;18.67;;
40997;SDS011;26740;45.944;12.480;2023-01-06T09:50:44;16.45;;;12.15;;
40997;SDS011;26740;45.944;12.480;2023-01-06T09:53:16;927.50;;;349.58;;
40997;SDS011;26740;45.944;12.480;2023-01-06T09:56:06;0.00;;;0.00;;
40997;SDS011;26740;45.944;12.480;2023-01-06T09:58:41;1999.90;;;999.90;;
40997;SDS011;26740;45.944;12.480;2023-01-06T10:01:12;46.30;;;23.85;;
40997;SDS011;26740;45.944;12.480;2023-01-06T10:03:41;41.33;;;23.73;;
40997;SDS011;26740;45.944;12.480;2023-01-06T10:06:16;50.10;;;27.98;;
40997;SDS011;26740;45.944;12.480;2023-01-06T10:09:00;39.72;;;22.10;;
40997;SDS011;26740;45.944;12.480;2023-01-06T10:14:25;40.53;;;20.30;;
40997;SDS011;26740;45.944;12.480;2023-01-06T10:17:17;42.03;;;21.23;;
40997;SDS011;26740;45.944;12.480;2023-01-06T10:25:33;26.38;;;15.50;;
40997;SDS011;26740;45.944;12.480;2023-01-06T10:28:10;28.95;;;16.60;;
40997;SDS011;26740;45.944;12.480;2023-01-06T10:30:44;26.45;;;15.18;;
40997;SDS011;26740;45.944;12.480;2023-01-06T10:33:25;23.98;;;15.10;;
40997;SDS011;26740;45.944;12.480;2023-01-06T10:35:55;24.67;;;14.98;;
40997;SDS011;26740;45.944;12.480;2023-01-06T10:38:36;27.05;;;14.25;;
40997;SDS011;26740;45.944;12.480;2023-01-06T10:43:59;23.67;;;13.00;;
40997;SDS011;26740;45.944;12.480;2023-01-06T10:46:28;22.60;;;12.65;;
40997;SDS011;26740;45.944;12.480;2023-01-06T10:48:59;20.52;;;11.70;;
40997;SDS011;26740;45.944;12.480;2023-01-06T10:54:11;25.13;;;13.23;;
40997;SDS011;26740;45.944;12.480;2023-01-06T10:56:42;21.77;;;13.15;;
40997;SDS011;26740;45.944;12.480;2023-01-06T10:59:14;23.92;;;12.90;;
40997;SDS011;26740;45.944;12.480;2023-01-06T11:01:53;24.67;;;12.13;;
40997;SDS011;26740;45.944;12.480;2023-01-06T11:04:23;25.95;;;13.93;;
40997;SDS011;26740;45.944;12.480;2023-01-06T11:06:54;22.27;;;13.23;;
40997;SDS011;26740;45.944;12.480;2023-01-06T11:12:07;14.32;;;8.00;;
40997;SDS011;26740;45.944;12.480;2023-01-06T11:14:37;14.38;;;7.63;;
40997;SDS011;26740;45.944;12.480;2023-01-06T11:17:13;19.92;;;9.50;;
40997;SDS011;26740;45.944;12.480;2023-01-06T11:19:41;20.25;;;9.98;;
40997;SDS011;26740;45.944;12.480;2023-01-06T11:25:00;14.07;;;7.35;;
40997;SDS011;26740;45.944;12.480;2023-01-06T11:27:26;14.27;;;8.27;;
40997;SDS011;26740;45.944;12.480;2023-01-06T11:29:51;16.08;;;8.95;;
40997;SDS011;26740;45.944;12.480;2023-01-06T11:32:21;14.85;;;8.43;;
40997;SDS011;26740;45.944;12.480;2023-01-06T11:34:56;16.42;;;9.68;;
40997;SDS011;26740;45.944;12.480;2023-01-06T11:37:28;16.70;;;9.70;;
40997;SDS011;26740;45.944;12.480;2023-01-06T11:40:00;21.02;;;10.82;;
40997;SDS011;26740;45.944;12.480;2023-01-06T11:42:48;17.38;;;10.32;;
40997;SDS011;26740;45.944;12.480;2023-01-06T11:45:34;24.38;;;11.32;;
40997;SDS011;26740;45.944;12.480;2023-01-06T11:48:03;20.88;;;10.52;;
40997;SDS011;26740;45.944;12.480;2023-01-06T11:50:32;22.30;;;10.40;;
40997;SDS011;26740;45.944;12.480;2023-01-06T11:52:59;23.40;;;10.80;;
40997;SDS011;26740;45.944;12.480;2023-01-06T11:55:26;21.23;;;10.88;;
40997;SDS011;26740;45.944;12.480;2023-01-06T11:57:54;19.40;;;9.50;;
40997;SDS011;26740;45.944;12.480;2023-01-06T12:03:41;17.15;;;9.77;;
40997;SDS011;26740;45.944;12.480;2023-01-06T12:08:39;23.25;;;10.65;;
40997;SDS011;26740;45.944;12.480;2023-01-06T12:11:14;16.65;;;10.10;;
40997;SDS011;26740;45.944;12.480;2023-01-06T12:13:44;20.90;;;10.52;;
40997;SDS011;26740;45.944;12.480;2023-01-06T12:16:14;22.30;;;10.57;;
40997;SDS011;26740;45.944;12.480;2023-01-06T12:18:47;18.13;;;10.20;;
40997;SDS011;26740;45.944;12.480;2023-01-06T12:21:17;23.00;;;11.18;;
40997;SDS011;26740;45.944;12.480;2023-01-06T12:23:51;32.13;;;10.35;;
40997;SDS011;26740;45.944;12.480;2023-01-06T12:26:21;20.65;;;9.65;;
40997;SDS011;26740;45.944;12.480;2023-01-06T12:28:49;19.20;;;10.05;;
40997;SDS011;26740;45.944;12.480;2023-01-06T12:31:20;17.45;;;10.02;;
40997;SDS011;26740;45.944;12.480;2023-01-06T12:34:10;22.00;;;11.13;;
40997;SDS011;26740;45.944;12.480;2023-01-06T12:42:27;19.05;;;10.32;;
40997;SDS011;26740;45.944;12.480;2023-01-06T12:45:11;18.27;;;9.55;;
40997;SDS011;26740;45.944;12.480;2023-01-06T12:47:49;18.65;;;9.70;;
40997;SDS011;26740;45.944;12.480;2023-01-06T12:53:09;23.67;;;10.23;;
40997;SDS011;26740;45.944;12.480;2023-01-06T13:01:28;22.25;;;10.98;;
40997;SDS011;26740;45.944;12.480;2023-01-06T13:09:11;19.58;;;10.35;;
40997;SDS011;26740;45.944;12.480;2023-01-06T13:14:22;21.70;;;10.45;;
40997;SDS011;26740;45.944;12.480;2023-01-06T13:17:07;19.63;;;10.07;;
40997;SDS011;26740;45.944;12.480;2023-01-06T13:22:21;25.20;;;11.40;;
40997;SDS011;26740;45.944;12.480;2023-01-06T13:33:28;22.83;;;11.02;;
40997;SDS011;26740;45.944;12.480;2023-01-06T13:38:57;24.27;;;10.65;;
40997;SDS011;26740;45.944;12.480;2023-01-06T13:41:31;24.80;;;10.95;;
40997;SDS011;26740;45.944;12.480;2023-01-06T13:44:04;21.75;;;11.98;;
40997;SDS011;26740;45.944;12.480;2023-01-06T13:46:38;23.58;;;11.57;;
40997;SDS011;26740;45.944;12.480;2023-01-06T13:49:04;24.27;;;11.70;;
40997;SDS011;26740;45.944;12.480;2023-01-06T13:51:34;22.73;;;10.55;;
40997;SDS011;26740;45.944;12.480;2023-01-06T13:54:02;25.27;;;12.98;;
40997;SDS011;26740;45.944;12.480;2023-01-06T13:56:32;27.83;;;13.60;;
40997;SDS011;26740;45.944;12.480;2023-01-06T13:59:21;25.17;;;13.05;;
40997;SDS011;26740;45.944;12.480;2023-01-06T14:01:48;23.30;;;12.77;;
40997;SDS011;26740;45.944;12.480;2023-01-06T14:07:06;24.50;;;13.25;;
40997;SDS011;26740;45.944;12.480;2023-01-06T14:09:35;25.77;;;13.27;;
40997;SDS011;26740;45.944;12.480;2023-01-06T14:12:21;23.80;;;12.57;;
40997;SDS011;26740;45.944;12.480;2023-01-06T14:17:46;25.75;;;12.73;;
40997;SDS011;26740;45.944;12.480;2023-01-06T14:20:29;32.25;;;14.35;;
40997;SDS011;26740;45.944;12.480;2023-01-06T14:23:01;32.92;;;15.68;;
40997;SDS011;26740;45.944;12.480;2023-01-06T14:25:28;29.88;;;15.98;;
40997;SDS011;26740;45.944;12.480;2023-01-06T14:30:24;29.02;;;15.07;;
40997;SDS011;26740;45.944;12.480;2023-01-06T14:35:30;33.83;;;15.77;;
40997;SDS011;26740;45.944;12.480;2023-01-06T14:38:01;30.25;;;15.98;;
40997;SDS011;26740;45.944;12.480;2023-01-06T14:40:31;33.38;;;15.65;;
40997;SDS011;26740;45.944;12.480;2023-01-06T14:43:02;29.45;;;14.45;;
40997;SDS011;26740;45.944;12.480;2023-01-06T14:45:46;31.95;;;14.63;;
40997;SDS011;26740;45.944;12.480;2023-01-06T14:48:13;24.92;;;12.75;;
40997;SDS011;26740;45.944;12.480;2023-01-06T14:50:43;28.60;;;13.30;;
40997;SDS011;26740;45.944;12.480;2023-01-06T14:53:21;30.23;;;15.23;;
40997;SDS011;26740;45.944;12.480;2023-01-06T14:55:53;27.10;;;13.95;;
40997;SDS011;26740;45.944;12.480;2023-01-06T14:58:26;28.85;;;14.18;;
40997;SDS011;26740;45.944;12.480;2023-01-06T15:00:57;27.48;;;13.82;;
40997;SDS011;26740;45.944;12.480;2023-01-06T15:03:24;36.05;;;13.70;;
40997;SDS011;26740;45.944;12.480;2023-01-06T15:06:07;30.80;;;14.93;;
40997;SDS011;26740;45.944;12.480;2023-01-06T15:08:37;32.47;;;15.55;;
40997;SDS011;26740;45.944;12.480;2023-01-06T15:11:17;29.33;;;14.35;;
40997;SDS011;26740;45.944;12.480;2023-01-06T15:13:47;36.72;;;15.52;;
40997;SDS011;26740;45.944;12.480;2023-01-06T15:18:44;29.55;;;14.00;;
40997;SDS011;26740;45.944;12.480;2023-01-06T15:21:12;27.70;;;13.82;;
40997;SDS011;26740;45.944;12.480;2023-01-06T15:23:41;26.25;;;12.77;;
40997;SDS011;26740;45.944;12.480;2023-01-06T15:26:42;20.52;;;10.82;;
40997;SDS011;26740;45.944;12.480;2023-01-06T15:29:02;25.20;;;11.93;;
40997;SDS011;26740;45.944;12.480;2023-01-06T15:31:33;23.80;;;12.38;;
40997;SDS011;26740;45.944;12.480;2023-01-06T15:34:02;27.58;;;12.50;;
40997;SDS011;26740;45.944;12.480;2023-01-06T15:36:32;24.80;;;12.55;;
40997;SDS011;26740;45.944;12.480;2023-01-06T15:38:59;28.42;;;13.07;;
40997;SDS011;26740;45.944;12.480;2023-01-06T15:41:27;33.10;;;14.57;;
40997;SDS011;26740;45.944;12.480;2023-01-06T15:43:57;24.33;;;12.50;;
40997;SDS011;26740;45.944;12.480;2023-01-06T15:46:34;28.48;;;14.48;;
40997;SDS011;26740;45.944;12.480;2023-01-06T15:49:04;29.13;;;13.00;;
40997;SDS011;26740;45.944;12.480;2023-01-06T15:51:36;36.17;;;14.70;;
40997;SDS011;26740;45.944;12.480;2023-01-06T15:54:01;28.08;;;13.75;;
40997;SDS011;26740;45.944;12.480;2023-01-06T15:56:27;29.70;;;14.10;;
40997;SDS011;26740;45.944;12.480;2023-01-06T15:58:55;29.13;;;14.98;;
40997;SDS011;26740;45.944;12.480;2023-01-06T16:01:23;35.65;;;16.90;;
40997;SDS011;26740;45.944;12.480;2023-01-06T16:03:50;39.33;;;16.10;;
40997;SDS011;26740;45.944;12.480;2023-01-06T16:06:26;35.53;;;16.08;;
40997;SDS011;26740;45.944;12.480;2023-01-06T16:14:45;36.28;;;18.95;;
40997;SDS011;26740;45.944;12.480;2023-01-06T16:19:48;28.00;;;14.27;;
40997;SDS011;26740;45.944;12.480;2023-01-06T16:25:22;26.83;;;13.68;;
40997;SDS011;26740;45.944;12.480;2023-01-06T16:27:50;27.88;;;13.70;;
40997;SDS011;26740;45.944;12.480;2023-01-06T16:30:19;27.63;;;13.73;;
40997;SDS011;26740;45.944;12.480;2023-01-06T16:32:50;28.45;;;15.18;;
40997;SDS011;26740;45.944;12.480;2023-01-06T16:35:24;31.30;;;15.50;;
40997;SDS011;26740;45.944;12.480;2023-01-06T16:37:51;28.33;;;14.45;;